EGNR/CEG METAR and TAF weather

Enter ICAO airport designator
Station Type Date Time Source
EGNR METAR 2021/09/23 18:20 UTC NOAA

EGNR 231820Z VRB03KT 9999 FEW043 15/12 Q1019


Station Type Date Time Source
EGNR Decoded METAR 2021/09/23 18:20 UTC NOAA

Hawarden, United Kingdom (EGNR) 53-10N 002-59W 0M
Sep 23, 2021 - 02:20 PM EDT / 2021.09.23 1820 UTC
Wind: Variable at 3 MPH (3 KT):0
Visibility: greater than 7 mile(s):0
Sky conditions: mostly clear
Temperature: 59 F (15 C)
Dew Point: 53 F (12 C)
Relative Humidity: 82%
Pressure (altimeter): 30.09 in. Hg (1019 hPa)
ob: EGNR 231820Z VRB03KT 9999 FEW043 15/12 Q1019
cycle: 18

Station Type Date Time Source
EGNR TAF 2016/01/23 12:00 UTC NOAA

TAF EGNR 231059Z 2312/2319 15009KT 9999 FEW020
BECMG 2316/2319 BKN014
TEMPO 2317/2319 6000 RA BKN008

Example: see airport list